Time,TemperatureF,DewpointF,PressureIn,WindDirection,WindDirectionDegrees,WindSpeedMPH,WindSpeedGustMPH,Humidity,HourlyPrecipIn,Conditions,Clouds,dailyrainin,SoftwareType,DateUTC
2013-01-25 00:03:00,55.0,52.0,30.29,West,281,0.0,-999.0,91,-99.99,,,-99.99,,2013-01-25 05:03:00,
2013-01-25 00:12:00,56.0,53.0,30.29,West,281,0.0,-999.0,91,-99.99,,,-99.99,,2013-01-25 05:12:00,
2013-01-25 00:22:00,56.0,53.0,30.29,West,281,0.0,-999.0,91,-99.99,,,-99.99,,2013-01-25 05:22:00,
2013-01-25 00:32:00,55.0,52.0,30.28,West,281,1.0,-999.0,91,-99.99,,,-99.99,,2013-01-25 05:32:00,
2013-01-25 00:43:00,55.0,52.0,30.28,West,281,1.0,-999.0,91,-99.99,,,-99.99,,2013-01-25 05:43:00,
2013-01-25 00:52:00,54.0,51.0,30.29,West,281,0.0,-999.0,91,-99.99,,,-99.99,,2013-01-25 05:52:00,
2013-01-25 01:02:00,54.0,52.0,30.28,West,281,0.0,-999.0,92,-99.99,,,-99.99,,2013-01-25 06:02:00,
2013-01-25 01:11:00,54.0,52.0,30.28,West,281,0.0,-999.0,92,-99.99,,,-99.99,,2013-01-25 06:11:00,
2013-01-25 01:21:00,54.0,52.0,30.28,West,281,0.0,-999.0,92,-99.99,,,-99.99,,2013-01-25 06:21:00,
2013-01-25 01:32:00,53.0,51.0,30.28,West,281,0.0,-999.0,93,-99.99,,,-99.99,,2013-01-25 06:32:00,
2013-01-25 01:42:00,53.0,51.0,30.28,West,281,0.0,-999.0,93,-99.99,,,-99.99,,2013-01-25 06:42:00,
2013-01-25 01:52:00,53.0,51.0,30.28,West,281,0.0,-999.0,93,-99.99,,,-99.99,,2013-01-25 06:52:00,
2013-01-25 02:02:00,53.0,51.0,30.29,West,281,0.0,-999.0,94,-99.99,,,-99.99,,2013-01-25 07:02:00,
2013-01-25 02:11:00,53.0,51.0,30.29,West,281,0.0,-999.0,94,-99.99,,,-99.99,,2013-01-25 07:11:00,
2013-01-25 02:22:00,53.0,51.0,30.28,West,281,0.0,-999.0,94,-99.99,,,-99.99,,2013-01-25 07:22:00,
2013-01-25 02:32:00,54.0,53.0,30.28,West,281,0.0,-999.0,95,-99.99,,,-99.99,,2013-01-25 07:32:00,
2013-01-25 02:42:00,54.0,53.0,30.28,West,281,0.0,-999.0,95,-99.99,,,-99.99,,2013-01-25 07:42:00,
2013-01-25 02:51:00,53.0,52.0,30.27,West,281,0.0,-999.0,95,-99.99,,,-99.99,,2013-01-25 07:51:00,
2013-01-25 03:02:00,53.0,52.0,30.27,West,281,0.0,-999.0,95,-99.99,,,-99.99,,2013-01-25 08:02:00,
2013-01-25 03:11:00,53.0,52.0,30.27,West,281,0.0,-999.0,95,-99.99,,,-99.99,,2013-01-25 08:11:00,
2013-01-25 03:21:00,53.0,52.0,30.27,West,281,0.0,-999.0,95,-99.99,,,-99.99,,2013-01-25 08:21:00,
2013-01-25 03:32:00,53.0,52.0,30.27,West,281,0.0,-999.0,95,-99.99,,,-99.99,,2013-01-25 08:32:00,
2013-01-25 03:42:00,53.0,52.0,30.27,West,281,0.0,-999.0,95,-99.99,,,-99.99,,2013-01-25 08:42:00,
2013-01-25 03:52:00,53.0,52.0,30.26,West,281,0.0,-999.0,96,-99.99,,,-99.99,,2013-01-25 08:52:00,
2013-01-25 04:02:00,53.0,52.0,30.26,West,281,0.0,-999.0,96,-99.99,,,-99.99,,2013-01-25 09:02:00,
2013-01-25 04:11:00,53.0,52.0,30.26,West,281,0.0,-999.0,96,-99.99,,,-99.99,,2013-01-25 09:11:00,
2013-01-25 04:21:00,53.0,52.0,30.26,West,281,0.0,-999.0,96,-99.99,,,-99.99,,2013-01-25 09:21:00,
2013-01-25 04:32:00,53.0,52.0,30.26,West,281,0.0,-999.0,96,-99.99,,,-99.99,,2013-01-25 09:32:00,
2013-01-25 04:42:00,53.0,52.0,30.26,West,281,0.0,-999.0,96,-99.99,,,-99.99,,2013-01-25 09:42:00,
2013-01-25 04:51:00,54.0,53.0,30.27,WNW,284,0.0,-999.0,96,-99.99,,,-99.99,,2013-01-25 09:51:00,
2013-01-25 05:02:00,54.0,53.0,30.27,NW,311,1.0,-999.0,96,-99.99,,,-99.99,,2013-01-25 10:02:00,
2013-01-25 05:12:00,55.0,54.0,30.27,NW,313,1.0,-999.0,96,-99.99,,,-99.99,,2013-01-25 10:12:00,
2013-01-25 05:21:00,55.0,54.0,30.27,NW,313,1.0,-999.0,96,-99.99,,,-99.99,,2013-01-25 10:21:00,
2013-01-25 05:32:00,54.0,53.0,30.27,NW,309,0.0,-999.0,96,-99.99,,,-99.99,,2013-01-25 10:32:00,
2013-01-25 05:42:00,54.0,53.0,30.27,NW,309,0.0,-999.0,96,-99.99,,,-99.99,,2013-01-25 10:42:00,
2013-01-25 05:51:00,54.0,53.0,30.27,NW,309,0.0,-999.0,97,-99.99,,,-99.99,,2013-01-25 10:51:00,
2013-01-25 06:03:00,54.0,53.0,30.27,NW,309,0.0,-999.0,97,-99.99,,,-99.99,,2013-01-25 11:03:00,
2013-01-25 06:11:00,54.0,53.0,30.27,NW,309,0.0,-999.0,97,-99.99,,,-99.99,,2013-01-25 11:11:00,
2013-01-25 06:22:00,54.0,53.0,30.28,NW,309,0.0,-999.0,97,-99.99,,,-99.99,,2013-01-25 11:22:00,
2013-01-25 06:33:00,54.0,53.0,30.29,NNW,340,1.0,-999.0,97,-99.99,,,-99.99,,2013-01-25 11:33:00,
2013-01-25 06:42:00,54.0,53.0,30.29,NNW,340,1.0,-999.0,97,-99.99,,,-99.99,,2013-01-25 11:42:00,
2013-01-25 06:52:00,54.0,53.0,30.29,NNW,348,1.0,-999.0,97,-99.99,,,-99.99,,2013-01-25 11:52:00,
2013-01-25 07:03:00,54.0,53.0,30.29,North,360,2.0,-999.0,96,-99.99,,,-99.99,,2013-01-25 12:03:00,
2013-01-25 07:12:00,54.0,53.0,30.29,North,360,2.0,-999.0,96,-99.99,,,-99.99,,2013-01-25 12:12:00,
2013-01-25 07:22:00,53.0,52.0,30.29,NNW,342,2.0,-999.0,96,-99.99,,,-99.99,,2013-01-25 12:22:00,
2013-01-25 07:32:00,53.0,52.0,30.30,NNW,344,2.0,-999.0,96,-99.99,,,-99.99,,2013-01-25 12:32:00,
2013-01-25 07:42:00,53.0,52.0,30.30,NNW,344,2.0,-999.0,96,-99.99,,,-99.99,,2013-01-25 12:42:00,
2013-01-25 07:53:00,53.0,52.0,30.29,NNW,335,2.0,-999.0,95,-99.99,,,-99.99,,2013-01-25 12:53:00,
2013-01-25 08:03:00,53.0,52.0,30.29,NNW,332,1.0,-999.0,95,-99.99,,,-99.99,,2013-01-25 13:03:00,
2013-01-25 08:12:00,53.0,52.0,30.29,NNW,332,1.0,-999.0,95,-99.99,,,-99.99,,2013-01-25 13:12:00,
2013-01-25 08:22:00,53.0,51.0,30.30,NNW,333,1.0,-999.0,94,-99.99,,,-99.99,,2013-01-25 13:22:00,
2013-01-25 08:33:00,53.0,51.0,30.30,NNW,333,0.0,-999.0,94,-99.99,,,-99.99,,2013-01-25 13:33:00,
2013-01-25 08:42:00,53.0,51.0,30.30,NNW,333,0.0,-999.0,94,-99.99,,,-99.99,,2013-01-25 13:42:00,
2013-01-25 08:52:00,53.0,51.0,30.30,NNW,333,0.0,-999.0,94,-99.99,,,-99.99,,2013-01-25 13:52:00,
2013-01-25 09:03:00,54.0,52.0,30.31,NNW,333,1.0,-999.0,94,-99.99,,,-99.99,,2013-01-25 14:03:00,
2013-01-25 09:12:00,54.0,52.0,30.31,NNW,333,1.0,-999.0,94,-99.99,,,-99.99,,2013-01-25 14:12:00,
2013-01-25 09:23:00,54.0,52.0,30.31,NNW,333,1.0,-999.0,94,-99.99,,,-99.99,,2013-01-25 14:23:00,
2013-01-25 09:33:00,54.0,52.0,30.31,NNW,333,1.0,-999.0,94,-99.99,,,-99.99,,2013-01-25 14:33:00,
2013-01-25 09:42:00,54.0,52.0,30.31,NNW,333,1.0,-999.0,94,-99.99,,,-99.99,,2013-01-25 14:42:00,
2013-01-25 09:53:00,58.0,54.0,30.31,ENE,65,0.0,-999.0,87,-99.99,,,-99.99,,2013-01-25 14:53:00,
2013-01-25 10:03:00,60.0,54.0,30.31,East,86,1.0,-999.0,81,-99.99,,,-99.99,,2013-01-25 15:03:00,
2013-01-25 10:13:00,60.0,54.0,30.31,East,86,1.0,-999.0,81,-99.99,,,-99.99,,2013-01-25 15:13:00,
2013-01-25 10:22:00,62.0,55.0,30.32,NE,46,3.0,-999.0,79,-99.99,,,-99.99,,2013-01-25 15:22:00,
2013-01-25 10:33:00,63.0,55.0,30.32,NNE,13,0.0,-999.0,74,-99.99,,,-99.99,,2013-01-25 15:33:00,
2013-01-25 10:42:00,63.0,55.0,30.32,NNE,13,0.0,-999.0,74,-99.99,,,-99.99,,2013-01-25 15:42:00,
2013-01-25 10:52:00,65.0,55.0,30.31,NW,324,1.0,-999.0,71,-99.99,,,-99.99,,2013-01-25 15:52:00,
2013-01-25 11:03:00,63.0,56.0,30.32,WNW,300,2.0,-999.0,77,-99.99,,,-99.99,,2013-01-25 16:03:00,
2013-01-25 11:12:00,63.0,56.0,30.32,WNW,300,2.0,-999.0,77,-99.99,,,-99.99,,2013-01-25 16:12:00,
2013-01-25 11:23:00,62.0,55.0,30.32,West,275,2.0,-999.0,77,-99.99,,,-99.99,,2013-01-25 16:23:00,
2013-01-25 11:33:00,63.0,55.0,30.31,WNW,296,2.0,-999.0,74,-99.99,,,-99.99,,2013-01-25 16:33:00,
2013-01-25 11:43:00,63.0,55.0,30.31,WNW,296,2.0,-999.0,74,-99.99,,,-99.99,,2013-01-25 16:43:00,
2013-01-25 11:52:00,66.0,56.0,30.30,WNW,296,1.0,-999.0,69,-99.99,,,-99.99,,2013-01-25 16:52:00,
2013-01-25 12:03:00,68.0,55.0,30.29,WSW,251,1.0,-999.0,63,-99.99,,,-99.99,,2013-01-25 17:03:00,
2013-01-25 12:12:00,68.0,55.0,30.29,WSW,251,1.0,-999.0,63,-99.99,,,-99.99,,2013-01-25 17:12:00,
2013-01-25 12:22:00,69.0,54.0,30.29,WNW,283,1.0,-999.0,59,-99.99,,,-99.99,,2013-01-25 17:22:00,
2013-01-25 12:33:00,69.0,53.0,30.28,WNW,292,3.0,-999.0,57,-99.99,,,-99.99,,2013-01-25 17:33:00,
2013-01-25 12:43:00,69.0,53.0,30.28,WNW,292,3.0,-999.0,57,-99.99,,,-99.99,,2013-01-25 17:43:00,
2013-01-25 12:52:00,69.0,46.0,30.27,NW,313,2.0,-999.0,44,-99.99,,,-99.99,,2013-01-25 17:52:00,
2013-01-25 13:03:00,70.0,45.0,30.25,NNW,328,3.0,-999.0,41,-99.99,,,-99.99,,2013-01-25 18:03:00,
2013-01-25 13:12:00,70.0,45.0,30.25,NNW,328,3.0,-999.0,41,-99.99,,,-99.99,,2013-01-25 18:12:00,
2013-01-25 13:23:00,70.0,45.0,30.25,WNW,293,4.0,-999.0,41,-99.99,,,-99.99,,2013-01-25 18:23:00,
2013-01-25 13:33:00,70.0,45.0,30.25,WNW,293,4.0,-999.0,41,-99.99,,,-99.99,,2013-01-25 18:33:00,
2013-01-25 13:42:00,70.0,45.0,30.25,WNW,293,4.0,-999.0,41,-99.99,,,-99.99,,2013-01-25 18:42:00,
2013-01-25 13:52:00,71.0,45.0,30.23,NNW,331,5.0,-999.0,40,-99.99,,,-99.99,,2013-01-25 18:52:00,
2013-01-25 14:03:00,70.0,46.0,30.23,NNW,333,5.0,-999.0,43,-99.99,,,-99.99,,2013-01-25 19:03:00,
2013-01-25 14:12:00,70.0,46.0,30.23,NNW,333,5.0,-999.0,43,-99.99,,,-99.99,,2013-01-25 19:12:00,
2013-01-25 14:22:00,72.0,48.0,30.22,WNW,289,4.0,-999.0,43,-99.99,,,-99.99,,2013-01-25 19:22:00,
2013-01-25 14:33:00,71.0,48.0,30.21,WNW,301,4.0,-999.0,44,-99.99,,,-99.99,,2013-01-25 19:33:00,
2013-01-25 14:42:00,71.0,48.0,30.21,WNW,301,4.0,-999.0,44,-99.99,,,-99.99,,2013-01-25 19:42:00,
2013-01-25 14:52:00,73.0,49.0,30.20,SSE,165,2.0,-999.0,42,-99.99,,,-99.99,,2013-01-25 19:52:00,
2013-01-25 15:03:00,73.0,48.0,30.20,SSW,196,2.0,-999.0,41,-99.99,,,-99.99,,2013-01-25 20:03:00,
2013-01-25 15:12:00,73.0,48.0,30.20,SSW,196,2.0,-999.0,41,-99.99,,,-99.99,,2013-01-25 20:12:00,
2013-01-25 15:23:00,73.0,49.0,30.19,SSE,162,3.0,-999.0,43,-99.99,,,-99.99,,2013-01-25 20:23:00,
2013-01-25 15:32:00,74.0,48.0,30.18,South,180,4.0,-999.0,40,-99.99,,,-99.99,,2013-01-25 20:32:00,
2013-01-25 15:42:00,74.0,48.0,30.18,South,180,4.0,-999.0,40,-99.99,,,-99.99,,2013-01-25 20:42:00,
2013-01-25 15:52:00,73.0,49.0,30.18,SSW,206,4.0,-999.0,43,-99.99,,,-99.99,,2013-01-25 20:52:00,
2013-01-25 16:02:00,74.0,47.0,30.18,SSW,205,4.0,-999.0,39,-99.99,,,-99.99,,2013-01-25 21:02:00,
2013-01-25 16:12:00,74.0,47.0,30.18,SSW,205,4.0,-999.0,39,-99.99,,,-99.99,,2013-01-25 21:12:00,
2013-01-25 16:23:00,74.0,50.0,30.18,South,184,5.0,-999.0,43,-99.99,,,-99.99,,2013-01-25 21:23:00,
2013-01-25 16:33:00,73.0,49.0,30.18,SSE,168,3.0,-999.0,42,-99.99,,,-99.99,,2013-01-25 21:33:00,
2013-01-25 16:42:00,73.0,49.0,30.18,SSE,168,3.0,-999.0,42,-99.99,,,-99.99,,2013-01-25 21:42:00,
2013-01-25 16:52:00,73.0,48.0,30.18,South,172,3.0,-999.0,41,-99.99,,,-99.99,,2013-01-25 21:52:00,
2013-01-25 17:03:00,73.0,49.0,30.18,SSW,201,2.0,-999.0,42,-99.99,,,-99.99,,2013-01-25 22:03:00,
2013-01-25 17:12:00,73.0,49.0,30.18,SSW,201,2.0,-999.0,42,-99.99,,,-99.99,,2013-01-25 22:12:00,
2013-01-25 17:22:00,73.0,48.0,30.18,SSW,196,1.0,-999.0,41,-99.99,,,-99.99,,2013-01-25 22:22:00,
2013-01-25 17:33:00,73.0,49.0,30.18,South,182,1.0,-999.0,43,-99.99,,,-99.99,,2013-01-25 22:33:00,
2013-01-25 17:42:00,73.0,49.0,30.18,South,182,1.0,-999.0,43,-99.99,,,-99.99,,2013-01-25 22:42:00,
2013-01-25 17:52:00,72.0,48.0,30.18,WSW,238,1.0,-999.0,43,-99.99,,,-99.99,,2013-01-25 22:52:00,
2013-01-25 18:02:00,71.0,47.0,30.18,SSW,212,3.0,-999.0,43,-99.99,,,-99.99,,2013-01-25 23:02:00,
2013-01-25 18:12:00,71.0,47.0,30.18,SSW,212,3.0,-999.0,43,-99.99,,,-99.99,,2013-01-25 23:12:00,
2013-01-25 18:22:00,69.0,47.0,30.18,SSW,213,1.0,-999.0,45,-99.99,,,-99.99,,2013-01-25 23:22:00,
2013-01-25 18:32:00,68.0,48.0,30.19,SSW,213,1.0,-999.0,48,-99.99,,,-99.99,,2013-01-25 23:32:00,
2013-01-25 18:42:00,68.0,48.0,30.19,SSW,213,1.0,-999.0,48,-99.99,,,-99.99,,2013-01-25 23:42:00,
2013-01-25 18:52:00,67.0,48.0,30.19,SSW,209,1.0,-999.0,50,-99.99,,,-99.99,,2013-01-25 23:52:00,
2013-01-25 19:02:00,66.0,47.0,30.19,SSW,210,1.0,-999.0,51,-99.99,,,-99.99,,2013-01-26 00:02:00,
2013-01-25 19:11:00,66.0,47.0,30.19,SSW,210,1.0,-999.0,51,-99.99,,,-99.99,,2013-01-26 00:11:00,
2013-01-25 19:22:00,65.0,47.0,30.20,West,259,2.0,-999.0,53,-99.99,,,-99.99,,2013-01-26 00:22:00,
2013-01-25 19:32:00,65.0,48.0,30.20,WNW,286,4.0,-999.0,55,-99.99,,,-99.99,,2013-01-26 00:32:00,
2013-01-25 19:42:00,65.0,48.0,30.20,WNW,286,4.0,-999.0,55,-99.99,,,-99.99,,2013-01-26 00:42:00,
2013-01-25 19:53:00,64.0,48.0,30.21,WNW,288,3.0,-999.0,57,-99.99,,,-99.99,,2013-01-26 00:53:00,
2013-01-25 20:02:00,64.0,49.0,30.22,NW,305,2.0,-999.0,59,-99.99,,,-99.99,,2013-01-26 01:02:00,
2013-01-25 20:12:00,64.0,49.0,30.22,NW,305,2.0,-999.0,59,-99.99,,,-99.99,,2013-01-26 01:12:00,
2013-01-25 20:22:00,63.0,48.0,30.21,WNW,285,2.0,-999.0,58,-99.99,,,-99.99,,2013-01-26 01:22:00,
2013-01-25 20:32:00,63.0,47.0,30.21,West,278,2.0,-999.0,56,-99.99,,,-99.99,,2013-01-26 01:32:00,
2013-01-25 20:42:00,63.0,47.0,30.21,West,278,2.0,-999.0,56,-99.99,,,-99.99,,2013-01-26 01:42:00,
2013-01-25 20:52:00,62.0,46.0,30.21,WNW,292,1.0,-999.0,56,-99.99,,,-99.99,,2013-01-26 01:52:00,
2013-01-25 21:02:00,61.0,45.0,30.21,WSW,250,2.0,-999.0,56,-99.99,,,-99.99,,2013-01-26 02:02:00,
2013-01-25 21:11:00,61.0,45.0,30.21,WSW,250,2.0,-999.0,56,-99.99,,,-99.99,,2013-01-26 02:11:00,
2013-01-25 21:22:00,61.0,45.0,30.21,WSW,245,2.0,-999.0,56,-99.99,,,-99.99,,2013-01-26 02:22:00,
2013-01-25 21:32:00,60.0,45.0,30.21,WSW,246,0.0,-999.0,58,-99.99,,,-99.99,,2013-01-26 02:32:00,
2013-01-25 21:42:00,60.0,45.0,30.21,WSW,246,0.0,-999.0,58,-99.99,,,-99.99,,2013-01-26 02:42:00,
2013-01-25 21:52:00,59.0,45.0,30.21,WSW,246,1.0,-999.0,59,-99.99,,,-99.99,,2013-01-26 02:52:00,
2013-01-25 22:02:00,59.0,46.0,30.21,WSW,247,1.0,-999.0,61,-99.99,,,-99.99,,2013-01-26 03:02:00,
2013-01-25 22:11:00,59.0,46.0,30.21,WSW,247,1.0,-999.0,61,-99.99,,,-99.99,,2013-01-26 03:11:00,
2013-01-25 22:22:00,58.0,45.0,30.21,WSW,247,1.0,-999.0,63,-99.99,,,-99.99,,2013-01-26 03:22:00,
2013-01-25 22:32:00,57.0,45.0,30.21,WSW,247,0.0,-999.0,64,-99.99,,,-99.99,,2013-01-26 03:32:00,
2013-01-25 22:43:00,57.0,45.0,30.21,WSW,247,0.0,-999.0,64,-99.99,,,-99.99,,2013-01-26 03:43:00,
2013-01-25 22:52:00,56.0,45.0,30.22,SW,231,1.0,-999.0,66,-99.99,,,-99.99,,2013-01-26 03:52:00,
2013-01-25 23:02:00,56.0,46.0,30.22,SW,231,0.0,-999.0,68,-99.99,,,-99.99,,2013-01-26 04:02:00,
2013-01-25 23:12:00,56.0,46.0,30.22,SW,231,0.0,-999.0,68,-99.99,,,-99.99,,2013-01-26 04:12:00,
2013-01-25 23:21:00,55.0,45.0,30.23,SW,231,0.0,-999.0,68,-99.99,,,-99.99,,2013-01-26 04:21:00,
2013-01-25 23:32:00,55.0,45.0,30.23,SW,231,0.0,-999.0,70,-99.99,,,-99.99,,2013-01-26 04:32:00,
2013-01-25 23:42:00,55.0,45.0,30.23,SW,231,0.0,-999.0,70,-99.99,,,-99.99,,2013-01-26 04:42:00,
2013-01-25 23:52:00,55.0,47.0,30.23,SW,231,0.0,-999.0,74,-99.99,,,-99.99,,2013-01-26 04:52:00,